North Walsham, United Kingdom
Current Conditions -  °F | °C
As of 11:50 PM on Wednesday 26 Nov 2014 (Local Time) from EGSH Reporting Station
Moderate Fog Moderate Fog  
Wind Chill: 48°   Ceiling: 100
Heat Index: 48°   Visibility: 0.09mi
Dew Point: 48°   Wind: 1mph
Humidity: 100%   Direction: NA
Pressure: 29.74"   Gusts: NA
Location:  52.82°N, 1.39°E
Report Text: EGSH 262350Z AUTO VRB01KT 0150 FG OVC001/// 09/09 Q1007
Loading
Personal Weather Stations






























Interactive Weather Map New forecast layout! Learn more

10-Day Weather Forecast

Advertisements
Track Severe Weather on mobile